EBCI - Charleroi/Gosselies, Belgium
Distance de la station: NE 18km
Mise à jour: 27/07/2017 02:20
nuageux
nuageux
 Wind from SO
Vent: SO 19 km/h
Température: 18°C
Point de rosée: 17°C
Humidité: 94%
Baromètre: 1009 hPa
Ciel: nuageux
Visibilité: 10 km
Détails du ciel: partiellement nuageux 244 m
nuageux 610 m
2017/07/27 00:20 EBCI 270020Z 22010KT 9999 SCT008 BKN020 18/17 Q1009 TEMPO 4000 RA BR BKN007
EBFS - Florennes, Belgium
Distance de la station: ESE 31km
Mise à jour: 27/07/2017 02:25
nuageux
nuageux
 Wind from SSO
Vent: SSO 17 km/h
Température: 17°C
Point de rosée: 17°C
Humidité: 100%
Baromètre: 1009 hPa
Ciel: nuageux
Visibilité: 10 km
Détails du ciel: quelques nuages 91 m
partiellement nuageux 152 m
nuageux 213 m
2017/07/27 00:25 EBFS 270025Z AUTO 21009KT 9999 FEW003/// SCT005/// BKN007/// 17/17 Q1009 YLO
EBCV - Chievres, Belgium
Distance de la station: NO 40km
Mise à jour: 27/07/2017 02:25
nuageux
nuageux
 Wind from SO
Vent: SO 13 km/h
Température: 18°C
Point de rosée: 17°C
Humidité: 94%
Baromètre: 1008 hPa
Ciel: nuageux
Visibilité: 10 km
Détails du ciel: partiellement nuageux 335 m
nuageux 823 m
2017/07/27 00:25 EBCV 270025Z AUTO 22007KT 9999 SCT011/// BKN027/// 18/17 Q1008 GRN
 
EBBE - Beauvechain, Belgium
Distance de la station: NE 57km
Mise à jour: 27/07/2017 02:25
nuageux
nuageux
 Wind from SSO
Vent: SSO 17 km/h
Température: 18°C
Point de rosée: 17°C
Humidité: 94%
Baromètre: 1008 hPa
Ciel: nuageux
Visibilité: 10 km
Détails du ciel: quelques nuages 427 m
partiellement nuageux 518 m
nuageux 671 m
2017/07/27 00:25 EBBE 270025Z AUTO 21009KT 9999 FEW014/// SCT017/// BKN022/// 18/17 Q1008 WHT
EBBR - Brussels National, Belgium
Distance de la station: NNE 63km
Mise à jour: 27/07/2017 02:20
nuageux
nuageux
 Wind from SSO
Vent: SSO 11 km/h
Température: 18°C
Point de rosée: 17°C
Humidité: 94%
Baromètre: 1008 hPa
Ciel: nuageux
Visibilité: 10 km
Détails du ciel: nuageux 396 m
2017/07/27 00:20 EBBR 270020Z 21006KT 9999 BKN013 18/17 Q1008 BECMG SCT020
LFQI - Cambrai/Epinoy, France
Distance de la station: O 82km
Mise à jour: 29/06/2012 12:30
NOT Current

 Wind from SO
Vent: SO 17 km/h
Température: 18°C
Point de rosée: 14°C
Humidité: 78%
Baromètre: 1009 hPa
2012/06/29 10:30 LFQI 291030Z AUTO 22009KT //// // ///////// 18/14 Q1009
 
LFQQ - Lille/Lesquin, France
Distance de la station: ONO 86km
Mise à jour: 27/07/2017 02:30
couvert
couvert
 Wind from OSO
Vent: OSO 19 km/h
Température: 18°C
Point de rosée: 16°C
Humidité: 88%
Baromètre: 1008 hPa
Ciel: couvert
Visibilité: 10 km
Détails du ciel: partiellement nuageux 457 m
couvert 792 m
2017/07/27 00:30 LFQQ 270030Z AUTO 25010KT 9999 SCT015 OVC026 18/16 Q1008 TEMPO 25015G25KT BKN013
EBLG - Bierset/Liege, Belgium
Distance de la station: ENE 89km
Mise à jour: 27/07/2017 02:20
nuageux
nuageux
 Wind from SSO
Vent: SSO 19 km/h
Température: 18°C
Point de rosée: 16°C
Humidité: 88%
Baromètre: 1008 hPa
Ciel: nuageux
Visibilité: 10 km
Détails du ciel: quelques nuages 366 m
nuageux 457 m
2017/07/27 00:20 EBLG 270020Z 20010KT 9999 FEW012 BKN015 18/16 Q1008 TEMPO BKN012
EBDT - Schaffen, Belgium
Distance de la station: NE 93km
Mise à jour: 27/07/2017 02:25
Pluie, nuageux
Pluie, nuageux
 Wind from SO
Vent: SO 11 km/h
Température: 18°C
Point de rosée: 17°C
Humidité: 94%
Baromètre: 1008 hPa
Résumé: Pluie
Ciel: nuageux
Visibilité: 4 km
Détails du ciel: quelques nuages 122 m
partiellement nuageux 183 m
nuageux 274 m
2017/07/27 00:25 EBDT 270025Z AUTO 23006KT 3700 RA FEW004/// SCT006/// BKN009/// 18/17 Q1008 YLO
 
EBAW - Antwerp/Deurne, Belgium
Distance de la station: N 96km
Mise à jour: 27/07/2017 02:20
nuageux
nuageux
 Wind from SO
Vent: SO 13 km/h
Température: 19°C
Point de rosée: 17°C
Humidité: 88%
Baromètre: 1007 hPa
Ciel: nuageux
Visibilité: 10 km
Détails du ciel: partiellement nuageux 396 m
nuageux 457 m
nuageux 823 m
2017/07/27 00:20 EBAW 270020Z AUTO 22007KT 9999 // SCT013/// BKN015/// BKN027/// 19/17 Q1007
LFAQ - Bray, France
Distance de la station: OSO 119km
Mise à jour: 27/07/2017 02:30
pluie légère, brume, nuageux
pluie légère, brume, nuageux
 Wind from O
Vent: O 19 km/h
Température: 18°C
Point de rosée: 17°C
Humidité: 94%
Baromètre: 1009 hPa
Résumé: pluie légère, brume
Ciel: nuageux
Visibilité: 4 km
Détails du ciel: nuageux 122 m
nuageux 244 m
nuageux 396 m
2017/07/27 00:30 LFAQ 270030Z AUTO 28010KT 3700 -RA BR BKN004 BKN008 BKN013 18/17 Q1009
LFSR - Reims/Champagne, France
Distance de la station: S 120km
Mise à jour: 16/04/2012 09:00
NOT Current
partiellement nuageux
partiellement nuageux
 Wind from N
Vent: N 17 km/h
Température: 4°C
Température ressentie: 0°C
Point de rosée: 0°C
Humidité: 75%
Baromètre: 1022 hPa
Ciel: partiellement nuageux
Visibilité: 10 km
2012/04/16 07:00 LFSR 160700Z AUTO 01009KT 340V070 9999 NSC 04/00 Q1022
 
EHWO - Woensdrecht, Netherlands
Distance de la station: N 122km
Mise à jour: 27/07/2017 02:25
couvert
couvert
 Wind from OSO
Vent: OSO 22 km/h
Température: 19°C
Point de rosée: 17°C
Humidité: 88%
Baromètre: 1006 hPa
Ciel: couvert
Visibilité: 10 km
Détails du ciel: quelques nuages 335 m
nuageux 427 m
couvert 488 m
2017/07/27 00:25 EHWO 270025Z AUTO 24012KT 9999 FEW011 BKN014 OVC016 19/17 Q1006 GRN
EHBK - Zuid-Limburg, Netherlands
Distance de la station: ENE 123km
Mise à jour: 27/07/2017 02:25
Heavy drizzle, nuageux
Heavy drizzle, nuageux
 Wind from SO
Vent: SO 11 km/h
Température: 17°C
Point de rosée: 17°C
Humidité: 100%
Baromètre: 1008 hPa
Résumé: Heavy Drizzle
Ciel: nuageux
Visibilité: 3 km
Détails du ciel: quelques nuages 152 m
partiellement nuageux 213 m
nuageux 244 m
2017/07/27 00:25 EHBK 270025Z AUTO 22006KT 190V260 2800 +DZ FEW005 SCT007 BKN008 17/17 Q1008
EBBL - Kleine-Brogel, Belgium
Distance de la station: NE 124km
Mise à jour: 27/07/2017 02:25
couvert
couvert
 Wind from SSO
Vent: SSO 13 km/h
Température: 17°C
Point de rosée: 17°C
Humidité: 100%
Baromètre: 1008 hPa
Ciel: couvert
Visibilité: 10 km
Détails du ciel: quelques nuages 183 m
nuageux 671 m
couvert 2347 m
2017/07/27 00:25 EBBL 270025Z AUTO 21007KT 9999 FEW006/// BKN022/// OVC077/// 17/17 Q1008 WHT
 
EBLB - Elsenborn, Belgium
Distance de la station: E 135km
Mise à jour: 27/07/2017 02:25
couvert
couvert
 Wind from OSO
Vent: OSO 9 km/h
Température: 15°C
Point de rosée: 15°C
Humidité: 100%
Baromètre: 1010 hPa
Ciel: couvert
Visibilité: 10 km
Détails du ciel: couvert 91 m
2017/07/27 00:25 EBLB 270025Z AUTO 25005KT 9999 OVC003/// 15/15 Q1010 YLO
EBOS - Oostende Airport, Belgium
Distance de la station: NO 136km
Mise à jour: 27/07/2017 02:20
nuageux
nuageux
 Wind from SO
Vent: SO 22 km/h
Température: 17°C
Point de rosée: 14°C
Humidité: 83%
Baromètre: 1007 hPa
Ciel: nuageux
Visibilité: 10 km
Détails du ciel: quelques nuages 305 m
nuageux 488 m
2017/07/27 00:20 EBOS 270020Z 23012KT 9999 FEW010 BKN016 17/14 Q1007 NOSIG
EBFN - Koksijde, Belgium
Distance de la station: NO 140km
Mise à jour: 27/07/2017 02:25
nuageux
nuageux
 Wind from OSO
Vent: OSO 24 km/h
Température: 17°C
Point de rosée: 15°C
Humidité: 88%
Baromètre: 1007 hPa
Ciel: nuageux
Visibilité: 10 km
Détails du ciel: nuageux 488 m
nuageux 5791 m
2017/07/27 00:25 EBFN 270025Z AUTO 24013KT 9999 BKN016/// BKN190/// 17/15 Q1007 WHT
 
ETNG - Geilenkirchen, Germany
Distance de la station: ENE 142km
Mise à jour: 26/07/2017 23:50
NOT Current
nuageux
nuageux
 Wind from OSO
Vent: OSO 15 km/h, Rafale: 33 km/h
Température: 20°C
Point de rosée: 15°C
Humidité: 73%
Baromètre: 1009 hPa
Ciel: nuageux
Visibilité: 10 km
Détails du ciel: nuageux 914 m
nuageux 1524 m
2017/07/26 21:50 ETNG 262150Z 24008G18KT 9999 BKN030 BKN050 20/15 Q1009
EHGR - Gilze-Rijen, Netherlands
Distance de la station: NNE 143km
Mise à jour: 27/07/2017 02:34
couvert
couvert
 Wind from SO
Vent: SO 11 km/h
Température: 18°C
Point de rosée: 17°C
Humidité: 94%
Baromètre: 1006 hPa
Ciel: couvert
Visibilité: 10 km
Détails du ciel: partiellement nuageux 366 m
nuageux 488 m
couvert 579 m
2017/07/27 00:34 EHGR 270034Z AUTO 22006KT 190V250 9999 SCT012 BKN016 OVC019 18/17 Q1006 GRN
EHEH - Eindhoven, Netherlands
Distance de la station: NNE 147km
Mise à jour: 27/07/2017 02:42
nuageux
nuageux
 Wind from SSO
Vent: SSO 15 km/h
Température: 18°C
Point de rosée: 17°C
Humidité: 94%
Baromètre: 1007 hPa
Ciel: nuageux
Visibilité: 10 km
Détails du ciel: quelques nuages 366 m
nuageux 457 m
nuageux 579 m
2017/07/27 00:42 EHEH 270042Z AUTO 21008KT 9999 FEW012 BKN015 BKN019 18/17 Q1007 WHT
 
ELLX - Luxembourg, Luxembourg
Distance de la station: ESE 162km
Mise à jour: 27/07/2017 02:20
pluie légère, Showers, couvert
pluie légère, Showers, couvert
 Wind from SO
Vent: SO 11 km/h
Température: 16°C
Point de rosée: 16°C
Humidité: 100%
Baromètre: 1011 hPa
Résumé: pluie légère, Showers
Ciel: couvert
Visibilité: 4 km
Détails du ciel: nuageux 61 m
couvert 91 m
2017/07/27 00:20 ELLX 270020Z AUTO 22006KT 190V250 3500 -SHRA BKN002/// OVC003/// 16/16 Q1011 TEMPO 2500 BKN002
EHVK - Volkel, Netherlands
Distance de la station: NE 174km
Mise à jour: 27/07/2017 02:41
couvert
couvert
 Wind from SO
Vent: SO 17 km/h
Température: 18°C
Point de rosée: 17°C
Humidité: 94%
Baromètre: 1006 hPa
Ciel: couvert
Visibilité: 10 km
Détails du ciel: quelques nuages 274 m
nuageux 366 m
couvert 488 m
2017/07/27 00:41 EHVK 270041Z AUTO 22009KT 180V260 9999 FEW009 BKN012 OVC016 18/17 Q1006 GRN
LFOK - Chalons/Vatry, France
Distance de la station: S 174km
Mise à jour: 27/07/2017 02:30
nuageux
nuageux
 Wind from SO
Vent: SO 17 km/h
Température: 17°C
Point de rosée: 17°C
Humidité: 100%
Baromètre: 1011 hPa
Ciel: nuageux
Visibilité: 10 km
Détails du ciel: quelques nuages 122 m
nuageux 274 m
nuageux 2134 m
2017/07/27 00:30 LFOK 270030Z AUTO 22009KT 9999 FEW004 BKN009 BKN070 17/17 Q1011 TEMPO 2000 DZRA

Script from Saratoga-Weather.org